createdAt,value
2018-12-14T00:01:33.771Z,7.27
2018-12-14T00:04:02.035Z,8.38
2018-12-14T00:06:30.238Z,7.00
2018-12-14T00:08:58.428Z,6.97
2018-12-14T00:11:26.601Z,8.03
2018-12-14T00:13:54.834Z,6.47
2018-12-14T00:16:23.054Z,6.97
2018-12-14T00:18:51.233Z,5.80
2018-12-14T00:21:19.424Z,6.93
2018-12-14T00:23:47.627Z,5.15
2018-12-14T00:26:15.818Z,6.78
2018-12-14T00:28:44.097Z,6.72
2018-12-14T00:31:12.265Z,6.20
2018-12-14T00:33:40.450Z,6.62
2018-12-14T00:36:08.814Z,6.15
2018-12-14T00:38:37.120Z,6.58
2018-12-14T00:41:05.302Z,7.00
2018-12-14T00:43:33.515Z,7.42
2018-12-14T00:46:01.709Z,5.75
2018-12-14T00:48:29.998Z,6.70
2018-12-14T00:50:58.230Z,6.03
2018-12-14T00:53:26.431Z,6.20
2018-12-14T00:55:54.660Z,6.40
2018-12-14T00:58:22.834Z,5.90
2018-12-14T01:00:51.079Z,6.67
2018-12-14T01:03:19.259Z,5.75
2018-12-14T01:05:54.077Z,5.57
2018-12-14T01:08:22.291Z,5.47
2018-12-14T01:10:50.539Z,5.57
2018-12-14T01:13:18.775Z,7.05
2018-12-14T01:15:47.047Z,7.13
2018-12-14T01:18:15.355Z,6.35
2018-12-14T01:20:43.584Z,6.07
2018-12-14T01:23:11.755Z,6.65
2018-12-14T01:25:40.020Z,7.03
2018-12-14T01:28:08.301Z,6.70
2018-12-14T01:30:36.534Z,6.73
2018-12-14T01:33:04.729Z,6.60
2018-12-14T01:35:32.906Z,6.10
2018-12-14T01:38:01.100Z,7.15
2018-12-14T01:40:29.369Z,7.13
2018-12-14T01:42:57.536Z,7.58
2018-12-14T01:45:25.793Z,5.62
2018-12-14T01:47:53.993Z,10.00
2018-12-14T01:50:22.202Z,7.30
2018-12-14T01:52:50.551Z,6.12
2018-12-14T01:55:18.873Z,6.15
2018-12-14T01:57:47.208Z,6.08
2018-12-14T02:00:15.549Z,5.97
2018-12-14T02:02:43.737Z,6.75
2018-12-14T02:05:11.993Z,7.62
2018-12-14T02:07:40.291Z,6.53
2018-12-14T02:10:08.642Z,6.55
2018-12-14T02:12:36.812Z,7.15
2018-12-14T02:15:05.274Z,6.42
2018-12-14T02:17:33.460Z,6.53
2018-12-14T02:20:01.681Z,5.97
2018-12-14T02:22:29.859Z,5.80
2018-12-14T02:24:58.094Z,7.37
2018-12-14T02:27:26.278Z,6.20
2018-12-14T02:29:54.486Z,6.22
2018-12-14T02:32:22.751Z,6.53
2018-12-14T02:34:51.099Z,7.90
2018-12-14T02:37:19.366Z,7.10
2018-12-14T02:39:47.535Z,6.12
2018-12-14T02:42:19.271Z,7.65
2018-12-14T02:44:45.934Z,6.05
2018-12-14T02:47:14.149Z,6.30
2018-12-14T02:49:42.350Z,9.25
2018-12-14T02:52:10.570Z,5.50
2018-12-14T02:54:38.800Z,7.17
2018-12-14T02:57:07.000Z,5.30
2018-12-14T02:59:35.308Z,6.22
2018-12-14T03:02:03.806Z,5.47
2018-12-14T03:04:32.017Z,4.87
2018-12-14T03:07:01.091Z,6.10
2018-12-14T03:09:29.275Z,4.58
2018-12-14T03:11:57.499Z,5.10
2018-12-14T03:14:25.866Z,6.87
2018-12-14T03:16:54.115Z,5.17
2018-12-14T03:19:22.362Z,5.12
2018-12-14T03:24:41.031Z,5.03
2018-12-14T03:27:09.335Z,6.13
2018-12-14T03:29:38.010Z,3.77
2018-12-14T03:32:06.217Z,5.80
2018-12-14T03:34:34.406Z,5.65
2018-12-14T03:37:02.626Z,4.77
2018-12-14T03:39:30.841Z,5.15
2018-12-14T03:41:59.032Z,7.28
2018-12-14T03:44:27.331Z,5.33
2018-12-14T03:46:55.730Z,6.47
2018-12-14T03:49:23.912Z,4.42
2018-12-14T03:51:52.111Z,5.77
2018-12-14T03:54:20.380Z,5.53
2018-12-14T03:56:48.596Z,7.40
2018-12-14T03:59:18.042Z,5.08
2018-12-14T04:01:46.331Z,5.27
2018-12-14T04:04:14.574Z,5.35
2018-12-14T04:06:42.785Z,4.42
2018-12-14T04:09:11.002Z,5.20
2018-12-14T04:11:39.195Z,5.60
2018-12-14T04:14:07.386Z,5.12
2018-12-14T04:16:35.610Z,7.20
2018-12-14T04:19:03.976Z,4.78
2018-12-14T04:21:32.224Z,6.50
2018-12-14T04:24:00.397Z,6.15
2018-12-14T04:26:28.638Z,5.45
2018-12-14T04:28:56.818Z,6.25
2018-12-14T04:31:25.155Z,5.03
2018-12-14T04:33:53.400Z,5.28
2018-12-14T04:36:21.716Z,6.10
2018-12-14T04:38:50.026Z,5.78
2018-12-14T04:41:18.299Z,5.30
2018-12-14T04:43:46.581Z,4.55
2018-12-14T04:46:14.884Z,6.77
2018-12-14T04:48:43.106Z,4.80
2018-12-14T04:51:11.291Z,5.07
2018-12-14T04:53:39.513Z,5.05
2018-12-14T04:56:07.728Z,5.35
2018-12-14T04:58:35.962Z,4.85
2018-12-14T05:01:04.250Z,4.57
2018-12-14T05:03:32.448Z,3.87
2018-12-14T05:06:00.676Z,5.83
2018-12-14T05:08:29.055Z,5.30
2018-12-14T05:10:57.257Z,6.78
2018-12-14T05:13:25.499Z,6.42
2018-12-14T05:15:53.686Z,6.30
2018-12-14T05:18:21.900Z,6.53
2018-12-14T05:20:50.123Z,4.47
2018-12-14T05:23:18.299Z,5.15
2018-12-14T05:25:46.469Z,6.80
2018-12-14T05:28:14.686Z,4.70
2018-12-14T05:30:42.882Z,6.37
2018-12-14T05:33:11.084Z,5.47
2018-12-14T05:35:39.302Z,6.47
2018-12-14T05:38:07.517Z,5.60
2018-12-14T05:40:35.736Z,6.03
2018-12-14T05:43:04.035Z,5.42
2018-12-14T05:45:32.230Z,6.25
2018-12-14T05:48:00.406Z,7.45
2018-12-14T05:50:28.658Z,8.27
2018-12-14T05:52:56.857Z,6.97
2018-12-14T05:55:25.041Z,7.08
2018-12-14T05:57:53.244Z,5.62
2018-12-14T06:00:21.461Z,5.65
2018-12-14T06:02:49.679Z,7.45
2018-12-14T06:05:17.985Z,7.78
2018-12-14T06:07:46.193Z,6.55
2018-12-14T06:10:14.523Z,8.08
2018-12-14T06:12:42.707Z,6.65
2018-12-14T06:15:10.968Z,6.28
2018-12-14T06:17:39.170Z,7.42
2018-12-14T06:20:07.942Z,7.60
2018-12-14T06:22:36.114Z,6.53
2018-12-14T06:25:04.436Z,7.40
2018-12-14T06:27:32.690Z,7.60
2018-12-14T06:30:00.982Z,7.50
2018-12-14T06:32:29.204Z,5.80
2018-12-14T06:34:57.422Z,6.12
2018-12-14T06:37:25.982Z,5.97
2018-12-14T06:39:54.174Z,7.85
2018-12-14T06:42:22.629Z,8.33
2018-12-14T06:44:51.031Z,6.45
2018-12-14T06:47:19.393Z,6.03
2018-12-14T06:49:47.741Z,6.55
2018-12-14T06:52:15.934Z,6.87
2018-12-14T06:54:44.122Z,8.58
2018-12-14T06:57:12.343Z,6.77
2018-12-14T06:59:40.922Z,8.68
2018-12-14T07:02:09.162Z,8.17
2018-12-14T07:04:37.433Z,10.88
2018-12-14T07:07:05.808Z,8.73
2018-12-14T07:09:34.508Z,6.30
2018-12-14T07:12:02.770Z,6.33
2018-12-14T07:14:30.958Z,6.65
2018-12-14T07:17:05.789Z,6.87
2018-12-14T07:19:34.083Z,8.45
2018-12-14T07:22:02.419Z,6.50
2018-12-14T07:24:30.639Z,8.40
2018-12-14T07:26:59.146Z,6.78
2018-12-14T07:29:28.951Z,7.30
2018-12-14T07:31:57.134Z,8.90
2018-12-14T07:34:25.357Z,7.72
2018-12-14T07:36:53.633Z,8.23
2018-12-14T07:39:21.882Z,7.40
2018-12-14T07:41:50.123Z,8.55
2018-12-14T07:44:18.439Z,6.62
2018-12-14T07:46:46.911Z,6.20
2018-12-14T07:49:15.145Z,9.23
2018-12-14T07:51:43.450Z,6.80
2018-12-14T07:54:11.746Z,6.28
2018-12-14T07:56:40.043Z,8.50
2018-12-14T07:59:08.413Z,6.28
2018-12-14T08:01:36.704Z,5.83
2018-12-14T08:04:04.994Z,7.55
2018-12-14T08:06:33.284Z,6.73
2018-12-14T08:09:01.469Z,7.72
2018-12-14T08:11:29.713Z,8.17
2018-12-14T08:13:57.911Z,8.68
2018-12-14T08:16:26.177Z,8.03
2018-12-14T08:18:54.366Z,8.45
2018-12-14T08:21:22.592Z,8.40
2018-12-14T08:23:50.769Z,6.97
2018-12-14T08:26:19.046Z,7.60
2018-12-14T08:28:47.319Z,7.90
2018-12-14T08:31:15.610Z,7.53
2018-12-14T08:33:46.855Z,8.43
2018-12-14T08:36:21.669Z,8.20
2018-12-14T08:38:49.861Z,8.03
2018-12-14T08:41:18.134Z,7.35
2018-12-14T08:43:46.365Z,8.58
2018-12-14T08:46:14.541Z,9.77
2018-12-14T08:48:42.772Z,10.05
2018-12-14T08:51:10.963Z,7.80
2018-12-14T08:53:39.491Z,8.15
2018-12-14T08:56:07.756Z,9.83
2018-12-14T08:58:35.925Z,9.68
2018-12-14T09:01:04.193Z,8.80
2018-12-14T09:03:32.434Z,8.73
2018-12-14T09:06:00.656Z,10.33
2018-12-14T09:08:28.890Z,10.20
2018-12-14T09:10:57.241Z,10.70
2018-12-14T09:13:25.072Z,10.32
2018-12-14T09:15:53.304Z,10.37
2018-12-14T09:18:21.645Z,8.63
2018-12-14T09:20:49.815Z,11.13
2018-12-14T09:23:18.185Z,11.35
2018-12-14T09:25:46.505Z,10.40
2018-12-14T09:28:14.713Z,10.43
2018-12-14T09:30:43.043Z,9.03
2018-12-14T09:33:11.281Z,10.03
2018-12-14T09:35:39.515Z,9.33
2018-12-14T09:38:07.690Z,12.20
2018-12-14T09:40:35.946Z,8.60
2018-12-14T09:43:04.254Z,9.15
2018-12-14T09:45:32.467Z,11.13
2018-12-14T09:48:00.680Z,9.50
2018-12-14T09:50:29.111Z,8.83
2018-12-14T09:52:57.446Z,9.50
2018-12-14T09:55:25.630Z,8.45
2018-12-14T09:57:53.830Z,10.03
2018-12-14T10:00:22.147Z,10.65
2018-12-14T10:02:50.455Z,9.15
2018-12-14T10:05:18.780Z,12.35
2018-12-14T10:07:47.230Z,9.25
2018-12-14T10:10:15.659Z,10.18
2018-12-14T10:12:43.901Z,11.12
2018-12-14T10:15:12.212Z,12.00
2018-12-14T10:17:40.390Z,11.00
2018-12-14T10:20:09.923Z,11.60
2018-12-14T10:22:41.505Z,12.13
2018-12-14T10:25:08.510Z,11.10
2018-12-14T10:27:36.678Z,10.65
2018-12-14T10:30:05.894Z,10.45
2018-12-14T10:32:34.214Z,10.08
2018-12-14T10:35:02.520Z,12.73
2018-12-14T10:37:30.768Z,11.77
2018-12-14T10:39:59.093Z,10.38
2018-12-14T10:42:27.290Z,12.50
2018-12-14T10:44:55.522Z,12.88
2018-12-14T10:47:23.787Z,11.30
2018-12-14T10:49:53.038Z,10.88
2018-12-14T10:52:21.226Z,10.47
2018-12-14T10:54:49.535Z,12.60
2018-12-14T10:57:17.774Z,14.53
2018-12-14T10:59:46.084Z,10.10
2018-12-14T11:02:14.319Z,10.93
2018-12-14T11:04:42.518Z,10.55
2018-12-14T11:07:10.753Z,9.77
2018-12-14T11:09:38.945Z,12.43
2018-12-14T11:12:07.222Z,9.43
2018-12-14T11:14:35.473Z,9.13
2018-12-14T11:17:03.776Z,9.27
2018-12-14T11:19:32.002Z,9.30
2018-12-14T11:22:00.270Z,9.70
2018-12-14T11:24:28.505Z,10.78
2018-12-14T11:26:56.770Z,10.73
2018-12-14T11:29:26.363Z,11.00
2018-12-14T11:31:54.557Z,9.93
2018-12-14T11:34:22.742Z,8.78
2018-12-14T11:36:50.962Z,12.28
2018-12-14T11:39:19.221Z,9.83
2018-12-14T11:41:47.665Z,9.73
2018-12-14T11:44:20.684Z,8.78
2018-12-14T11:46:46.322Z,8.67
2018-12-14T11:49:14.590Z,10.98
2018-12-14T11:51:42.768Z,12.18
2018-12-14T11:54:10.978Z,8.38
2018-12-14T11:56:39.194Z,10.90
2018-12-14T11:59:07.487Z,11.85
2018-12-14T12:01:35.842Z,9.93
2018-12-14T12:04:04.127Z,9.35
2018-12-14T12:06:32.319Z,8.77
2018-12-14T12:09:00.660Z,11.90
2018-12-14T12:11:28.927Z,8.20
2018-12-14T12:13:57.138Z,8.90
2018-12-14T12:16:25.350Z,7.87
2018-12-14T12:18:53.534Z,9.38
2018-12-14T12:21:21.805Z,9.23
2018-12-14T12:23:55.211Z,7.40
2018-12-14T12:26:20.345Z,7.03
2018-12-14T12:28:48.574Z,9.90
2018-12-14T12:31:16.771Z,9.20
2018-12-14T12:33:44.990Z,7.10
2018-12-14T12:36:13.153Z,9.13
2018-12-14T12:38:41.464Z,9.53
2018-12-14T12:41:09.711Z,8.38
2018-12-14T12:43:37.937Z,8.70
2018-12-14T12:46:06.153Z,8.27
2018-12-14T12:48:34.527Z,9.20
2018-12-14T12:51:03.247Z,9.13
2018-12-14T12:53:31.823Z,9.08
2018-12-14T12:55:59.999Z,8.03
2018-12-14T12:58:28.210Z,9.48
2018-12-14T13:00:56.428Z,7.97
2018-12-14T13:03:24.601Z,8.05
2018-12-14T13:05:52.794Z,10.93
2018-12-14T13:08:21.040Z,9.23
2018-12-14T13:10:49.263Z,10.33
2018-12-14T13:13:17.537Z,7.80
2018-12-14T13:15:45.791Z,10.27
2018-12-14T13:18:14.015Z,10.15
2018-12-14T13:20:42.256Z,9.63
2018-12-14T13:23:10.478Z,8.65
2018-12-14T13:25:38.706Z,8.07
2018-12-14T13:28:07.311Z,11.00
2018-12-14T13:30:36.171Z,8.93
2018-12-14T13:33:04.703Z,8.85
2018-12-14T13:35:33.035Z,10.30
2018-12-14T13:38:01.259Z,8.45
2018-12-14T13:40:29.637Z,10.30
2018-12-14T13:42:57.971Z,8.18
2018-12-14T13:45:26.240Z,9.43
2018-12-14T13:47:54.452Z,10.50
2018-12-14T13:50:22.606Z,8.73
2018-12-14T13:52:51.003Z,10.30
2018-12-14T13:55:19.271Z,7.90
2018-12-14T13:57:47.509Z,10.35
2018-12-14T14:00:15.687Z,7.40
2018-12-14T14:02:43.900Z,7.53
2018-12-14T14:05:12.073Z,7.33
2018-12-14T14:07:40.669Z,7.70
2018-12-14T14:10:08.978Z,6.60
2018-12-14T14:12:37.229Z,7.50
2018-12-14T14:15:06.723Z,8.30
2018-12-14T14:17:34.997Z,8.53
2018-12-14T14:20:03.337Z,9.73
2018-12-14T14:22:32.010Z,7.85
2018-12-14T14:25:00.246Z,9.95
2018-12-14T14:27:28.474Z,8.43
2018-12-14T14:29:56.699Z,9.93
2018-12-14T14:32:24.966Z,9.80
2018-12-14T14:34:53.154Z,9.50
2018-12-14T14:37:21.405Z,8.37
2018-12-14T14:39:49.575Z,9.15
2018-12-14T14:42:17.799Z,9.93
2018-12-14T14:44:45.983Z,8.90
2018-12-14T14:47:14.223Z,8.57
2018-12-14T14:49:42.451Z,8.85
2018-12-14T14:52:10.648Z,7.87
2018-12-14T14:54:39.992Z,9.53
2018-12-14T14:57:08.363Z,7.90
2018-12-14T14:59:36.650Z,10.15
2018-12-14T15:02:04.935Z,9.83
2018-12-14T15:04:33.157Z,8.88
2018-12-14T15:07:01.346Z,8.60
2018-12-14T15:09:29.539Z,7.85
2018-12-14T15:11:57.822Z,10.33
2018-12-14T15:14:26.166Z,10.38
2018-12-14T15:16:54.381Z,9.10
2018-12-14T15:19:22.634Z,9.68
2018-12-14T15:21:51.022Z,10.50
2018-12-14T15:24:19.243Z,8.30
2018-12-14T15:26:47.551Z,9.03
2018-12-14T15:29:16.721Z,10.65
2018-12-14T15:31:45.634Z,9.17
2018-12-14T15:34:14.462Z,9.73
2018-12-14T15:36:43.019Z,9.90
2018-12-14T15:39:11.353Z,9.70
2018-12-14T15:41:39.861Z,8.47
2018-12-14T15:44:08.049Z,10.75
2018-12-14T15:46:36.353Z,9.17
2018-12-14T15:49:04.564Z,8.68
2018-12-14T15:51:32.774Z,10.32
2018-12-14T15:54:01.019Z,8.00
2018-12-14T15:56:29.279Z,7.77
2018-12-14T15:58:57.508Z,8.80
2018-12-14T16:01:25.884Z,8.40
2018-12-14T16:03:54.122Z,7.78
2018-12-14T16:06:22.394Z,8.20
2018-12-14T16:08:50.597Z,8.25
2018-12-14T16:11:18.806Z,8.60
2018-12-14T16:13:46.946Z,8.93
2018-12-14T16:16:15.312Z,10.80
2018-12-14T16:18:43.528Z,10.20
2018-12-14T16:21:11.798Z,7.90
2018-12-14T16:23:40.074Z,10.50
2018-12-14T16:26:08.494Z,10.37
2018-12-14T16:28:36.790Z,9.05
2018-12-14T16:31:05.067Z,8.57
2018-12-14T16:33:33.304Z,7.50
2018-12-14T16:36:01.525Z,8.77
2018-12-14T16:38:29.730Z,12.88
2018-12-14T16:40:57.911Z,8.87
2018-12-14T16:43:26.121Z,9.25
2018-12-14T16:45:54.387Z,8.63
2018-12-14T16:48:22.623Z,7.90
2018-12-14T16:50:50.854Z,8.23
2018-12-14T16:53:19.203Z,8.83
2018-12-14T16:55:47.459Z,9.30
2018-12-14T16:58:15.755Z,7.40
2018-12-14T17:00:43.994Z,8.45
2018-12-14T17:03:12.236Z,8.48
2018-12-14T17:05:40.546Z,7.40
2018-12-14T17:08:08.804Z,8.30
2018-12-14T17:10:37.096Z,8.27
2018-12-14T17:13:05.306Z,8.38
2018-12-14T17:15:33.642Z,8.13
2018-12-14T17:18:01.886Z,10.68
2018-12-14T17:20:30.074Z,9.93
2018-12-14T17:22:58.372Z,9.48
2018-12-14T17:25:26.584Z,9.20
2018-12-14T17:27:54.781Z,9.23
2018-12-14T17:30:23.084Z,8.73
2018-12-14T17:32:51.293Z,8.20
2018-12-14T17:35:19.551Z,8.13
2018-12-14T17:37:47.758Z,8.23
2018-12-14T17:40:16.125Z,9.50
2018-12-14T17:42:44.519Z,8.85
2018-12-14T17:45:12.851Z,9.30
2018-12-14T17:47:41.068Z,8.58
2018-12-14T17:50:09.391Z,10.15
2018-12-14T17:52:39.063Z,8.18
2018-12-14T17:55:07.714Z,8.28
2018-12-14T17:57:36.163Z,9.20
2018-12-14T18:00:05.550Z,6.87
2018-12-14T18:02:33.769Z,9.30
2018-12-14T18:05:02.081Z,9.80
2018-12-14T18:07:30.270Z,10.20
2018-12-14T18:09:58.470Z,9.90
2018-12-14T18:12:26.661Z,8.70
2018-12-14T18:14:54.894Z,9.18
2018-12-14T18:17:23.090Z,8.10
2018-12-14T18:19:51.305Z,8.73
2018-12-14T18:22:19.869Z,8.37
2018-12-14T18:24:48.542Z,9.35
2018-12-14T18:27:17.674Z,12.23
2018-12-14T18:29:46.100Z,8.25
2018-12-14T18:32:14.348Z,8.17
2018-12-14T18:34:42.583Z,7.20
2018-12-14T18:37:10.840Z,9.10
2018-12-14T18:39:39.036Z,9.80
2018-12-14T18:42:07.204Z,9.53
2018-12-14T18:44:35.530Z,8.43
2018-12-14T18:47:03.803Z,9.98
2018-12-14T18:49:32.035Z,9.88
2018-12-14T18:52:00.225Z,14.10
2018-12-14T18:54:28.457Z,11.70
2018-12-14T18:56:56.695Z,10.30
2018-12-14T18:59:26.191Z,9.43
2018-12-14T19:01:54.463Z,9.97
2018-12-14T19:04:22.690Z,10.88
2018-12-14T19:06:50.975Z,10.80
2018-12-14T19:09:19.275Z,11.25
2018-12-14T19:11:47.448Z,10.50
2018-12-14T19:14:15.694Z,8.40
2018-12-14T19:16:43.885Z,8.63
2018-12-14T19:19:12.100Z,7.97
2018-12-14T19:21:40.313Z,9.13
2018-12-14T19:24:08.543Z,7.87
2018-12-14T19:26:36.835Z,8.20
2018-12-14T19:29:05.068Z,8.20
2018-12-14T19:34:08.097Z,14.03
2018-12-14T19:36:36.271Z,11.00
2018-12-14T19:39:05.379Z,19.17
2018-12-14T19:41:33.598Z,13.07
2018-12-14T19:44:01.808Z,10.82
2018-12-14T19:46:30.034Z,9.37
2018-12-14T19:48:58.238Z,10.60
2018-12-14T19:51:26.670Z,10.40
2018-12-14T19:53:54.846Z,7.45
2018-12-14T19:56:23.095Z,10.50
2018-12-14T19:58:51.285Z,9.45
2018-12-14T20:01:19.513Z,8.27
2018-12-14T20:03:47.702Z,7.25
2018-12-14T20:06:15.992Z,8.58
2018-12-14T20:08:44.246Z,7.20
2018-12-14T20:11:19.062Z,11.57
2018-12-14T20:13:47.233Z,10.08
2018-12-14T20:16:15.407Z,9.93
2018-12-14T20:18:43.626Z,9.30
2018-12-14T20:21:11.866Z,8.53
2018-12-14T20:23:40.080Z,7.47
2018-12-14T20:26:08.345Z,6.00
2018-12-14T20:28:36.570Z,6.25
2018-12-14T20:31:04.760Z,7.10
2018-12-14T20:33:33.115Z,6.50
2018-12-14T20:36:01.379Z,8.63
2018-12-14T20:38:29.586Z,7.60
2018-12-14T20:40:57.775Z,11.00
2018-12-14T20:43:25.990Z,9.20
2018-12-14T20:45:54.318Z,9.97
2018-12-14T20:48:22.553Z,7.78
2018-12-14T20:50:50.734Z,7.97
2018-12-14T20:53:19.006Z,7.33
2018-12-14T20:55:47.190Z,9.27
2018-12-14T20:58:15.374Z,6.80
2018-12-14T21:00:43.628Z,8.00
2018-12-14T21:03:11.829Z,7.47
2018-12-14T21:05:40.059Z,7.60
2018-12-14T21:08:08.242Z,7.55
2018-12-14T21:10:36.519Z,9.13
2018-12-14T21:13:04.815Z,8.48
2018-12-14T21:15:33.199Z,7.93
2018-12-14T21:18:01.405Z,8.95
2018-12-14T21:20:29.605Z,7.70
2018-12-14T21:22:58.042Z,17.27
2018-12-14T21:25:26.229Z,13.30
2018-12-14T21:27:54.491Z,10.60
2018-12-14T21:30:22.745Z,9.20
2018-12-14T21:32:51.056Z,12.18
2018-12-14T21:35:19.287Z,7.80
2018-12-14T21:37:47.595Z,7.87
2018-12-14T21:40:15.793Z,7.62
2018-12-14T21:42:44.102Z,8.80
2018-12-14T21:45:12.314Z,7.92
2018-12-14T21:47:40.525Z,10.10
2018-12-14T21:50:08.839Z,9.88
2018-12-14T21:52:37.072Z,7.42
2018-12-14T21:55:05.844Z,7.53
2018-12-14T21:57:34.092Z,6.80
2018-12-14T22:00:02.454Z,7.92
2018-12-14T22:02:30.654Z,7.53
2018-12-14T22:04:58.950Z,7.35
2018-12-14T22:07:27.143Z,8.83
2018-12-14T22:09:55.334Z,7.50
2018-12-14T22:12:23.498Z,8.63
2018-12-14T22:14:51.711Z,9.93
2018-12-14T22:17:19.880Z,8.50
2018-12-14T22:19:48.096Z,7.80
2018-12-14T22:22:16.358Z,8.43
2018-12-14T22:24:44.557Z,7.85
2018-12-14T22:27:12.766Z,8.47
2018-12-14T22:29:41.095Z,7.72
2018-12-14T22:32:09.419Z,7.22
2018-12-14T22:34:37.637Z,7.05
2018-12-14T22:37:05.906Z,7.95
2018-12-14T22:39:34.434Z,7.53
2018-12-14T22:42:02.789Z,6.77
2018-12-14T22:44:31.198Z,8.08
2018-12-14T22:46:59.410Z,6.67
2018-12-14T22:49:27.611Z,7.08
2018-12-14T22:51:55.810Z,6.87
2018-12-14T22:54:24.069Z,7.92
2018-12-14T22:56:52.262Z,7.23
2018-12-14T22:59:21.722Z,7.40
2018-12-14T23:01:50.057Z,7.63
2018-12-14T23:04:18.239Z,6.97
2018-12-14T23:06:46.442Z,7.93
2018-12-14T23:09:14.610Z,8.90
2018-12-14T23:11:42.795Z,8.37
2018-12-14T23:14:10.985Z,7.42
2018-12-14T23:16:39.313Z,8.43
2018-12-14T23:19:07.529Z,8.18
2018-12-14T23:21:35.777Z,8.20
2018-12-14T23:24:04.181Z,9.20
2018-12-14T23:26:32.449Z,9.53
2018-12-14T23:29:00.690Z,7.05
2018-12-14T23:31:28.946Z,6.95
2018-12-14T23:33:57.166Z,8.08
2018-12-14T23:36:25.390Z,9.03
2018-12-14T23:38:53.594Z,10.72
2018-12-14T23:41:21.797Z,7.67
2018-12-14T23:43:50.022Z,8.75
2018-12-14T23:46:18.272Z,8.97
2018-12-14T23:48:46.654Z,7.75
2018-12-14T23:51:14.858Z,9.95
2018-12-14T23:53:43.046Z,8.50
2018-12-14T23:56:11.246Z,8.70
2018-12-14T23:58:39.431Z,9.08
